sensor_id;sensor_type;location;lat;lon;timestamp;P1;durP1;ratioP1;P2;durP2;ratioP2
32393;SDS011;18853;45.426;9.206;2023-11-21T00:02:12;65.03;;;52.22;;
32393;SDS011;18853;45.426;9.206;2023-11-21T00:04:37;67.05;;;53.58;;
32393;SDS011;18853;45.426;9.206;2023-11-21T00:07:03;66.03;;;51.95;;
32393;SDS011;18853;45.426;9.206;2023-11-21T00:09:28;68.78;;;53.33;;
32393;SDS011;18853;45.426;9.206;2023-11-21T00:11:54;65.65;;;52.08;;
32393;SDS011;18853;45.426;9.206;2023-11-21T00:14:20;71.20;;;53.20;;
32393;SDS011;18853;45.426;9.206;2023-11-21T00:16:45;70.65;;;53.50;;
32393;SDS011;18853;45.426;9.206;2023-11-21T00:19:11;64.35;;;50.90;;
32393;SDS011;18853;45.426;9.206;2023-11-21T00:21:37;68.80;;;53.33;;
32393;SDS011;18853;45.426;9.206;2023-11-21T00:24:03;66.00;;;50.58;;
32393;SDS011;18853;45.426;9.206;2023-11-21T00:26:28;64.00;;;50.88;;
32393;SDS011;18853;45.426;9.206;2023-11-21T00:28:56;64.40;;;51.72;;
32393;SDS011;18853;45.426;9.206;2023-11-21T00:31:21;66.50;;;52.20;;
32393;SDS011;18853;45.426;9.206;2023-11-21T00:33:47;70.63;;;52.35;;
32393;SDS011;18853;45.426;9.206;2023-11-21T00:36:13;71.80;;;51.65;;
32393;SDS011;18853;45.426;9.206;2023-11-21T00:38:38;68.80;;;51.28;;
32393;SDS011;18853;45.426;9.206;2023-11-21T00:41:05;65.97;;;52.50;;
32393;SDS011;18853;45.426;9.206;2023-11-21T00:43:31;70.05;;;53.13;;
32393;SDS011;18853;45.426;9.206;2023-11-21T00:45:58;67.18;;;52.42;;
32393;SDS011;18853;45.426;9.206;2023-11-21T00:48:24;65.75;;;51.55;;
32393;SDS011;18853;45.426;9.206;2023-11-21T00:50:49;66.30;;;51.72;;
32393;SDS011;18853;45.426;9.206;2023-11-21T00:53:15;68.97;;;52.85;;
32393;SDS011;18853;45.426;9.206;2023-11-21T00:55:41;67.88;;;52.67;;
32393;SDS011;18853;45.426;9.206;2023-11-21T00:58:06;69.28;;;53.35;;
32393;SDS011;18853;45.426;9.206;2023-11-21T01:00:33;64.95;;;52.47;;
32393;SDS011;18853;45.426;9.206;2023-11-21T01:02:59;66.22;;;51.17;;
32393;SDS011;18853;45.426;9.206;2023-11-21T01:05:25;66.25;;;52.17;;
32393;SDS011;18853;45.426;9.206;2023-11-21T01:07:50;63.25;;;50.40;;
32393;SDS011;18853;45.426;9.206;2023-11-21T01:10:16;70.28;;;51.67;;
32393;SDS011;18853;45.426;9.206;2023-11-21T01:12:42;65.18;;;50.83;;
32393;SDS011;18853;45.426;9.206;2023-11-21T01:15:08;69.32;;;52.03;;
32393;SDS011;18853;45.426;9.206;2023-11-21T01:17:36;67.65;;;50.97;;
32393;SDS011;18853;45.426;9.206;2023-11-21T01:20:03;65.90;;;51.00;;
32393;SDS011;18853;45.426;9.206;2023-11-21T01:22:37;63.97;;;49.45;;
32393;SDS011;18853;45.426;9.206;2023-11-21T01:25:02;61.15;;;48.92;;
32393;SDS011;18853;45.426;9.206;2023-11-21T01:27:30;68.38;;;50.38;;
32393;SDS011;18853;45.426;9.206;2023-11-21T01:29:56;70.78;;;49.92;;
32393;SDS011;18853;45.426;9.206;2023-11-21T01:32:21;67.00;;;49.60;;
32393;SDS011;18853;45.426;9.206;2023-11-21T01:34:47;62.97;;;49.03;;
32393;SDS011;18853;45.426;9.206;2023-11-21T01:37:13;66.10;;;49.75;;
32393;SDS011;18853;45.426;9.206;2023-11-21T01:39:39;63.90;;;50.17;;
32393;SDS011;18853;45.426;9.206;2023-11-21T01:42:05;64.07;;;49.58;;
32393;SDS011;18853;45.426;9.206;2023-11-21T01:44:31;68.18;;;51.35;;
32393;SDS011;18853;45.426;9.206;2023-11-21T01:46:56;59.28;;;48.10;;
32393;SDS011;18853;45.426;9.206;2023-11-21T01:49:22;60.75;;;47.20;;
32393;SDS011;18853;45.426;9.206;2023-11-21T01:51:48;62.40;;;48.70;;
32393;SDS011;18853;45.426;9.206;2023-11-21T01:54:16;64.20;;;49.83;;
32393;SDS011;18853;45.426;9.206;2023-11-21T01:56:43;68.05;;;50.03;;
32393;SDS011;18853;45.426;9.206;2023-11-21T01:59:11;63.03;;;47.55;;
32393;SDS011;18853;45.426;9.206;2023-11-21T02:01:42;66.60;;;48.17;;
32393;SDS011;18853;45.426;9.206;2023-11-21T02:04:08;63.15;;;48.05;;
32393;SDS011;18853;45.426;9.206;2023-11-21T02:06:35;62.47;;;48.95;;
32393;SDS011;18853;45.426;9.206;2023-11-21T02:09:00;59.30;;;47.72;;
32393;SDS011;18853;45.426;9.206;2023-11-21T02:11:26;63.60;;;47.15;;
32393;SDS011;18853;45.426;9.206;2023-11-21T02:13:52;61.42;;;46.95;;
32393;SDS011;18853;45.426;9.206;2023-11-21T02:16:19;65.70;;;48.70;;
32393;SDS011;18853;45.426;9.206;2023-11-21T02:18:46;63.88;;;47.70;;
32393;SDS011;18853;45.426;9.206;2023-11-21T02:21:13;63.53;;;47.33;;
32393;SDS011;18853;45.426;9.206;2023-11-21T02:23:39;65.35;;;47.38;;
32393;SDS011;18853;45.426;9.206;2023-11-21T02:26:09;66.72;;;48.22;;
32393;SDS011;18853;45.426;9.206;2023-11-21T02:28:35;65.15;;;47.58;;
32393;SDS011;18853;45.426;9.206;2023-11-21T02:31:01;61.53;;;47.17;;
32393;SDS011;18853;45.426;9.206;2023-11-21T02:33:28;64.55;;;47.10;;
32393;SDS011;18853;45.426;9.206;2023-11-21T02:35:53;58.95;;;44.75;;
32393;SDS011;18853;45.426;9.206;2023-11-21T02:38:20;58.72;;;46.03;;
32393;SDS011;18853;45.426;9.206;2023-11-21T02:40:46;63.85;;;47.78;;
32393;SDS011;18853;45.426;9.206;2023-11-21T02:43:13;69.00;;;47.13;;
32393;SDS011;18853;45.426;9.206;2023-11-21T02:45:39;65.18;;;48.67;;
32393;SDS011;18853;45.426;9.206;2023-11-21T02:48:06;63.03;;;46.95;;
32393;SDS011;18853;45.426;9.206;2023-11-21T02:50:32;59.85;;;46.00;;
32393;SDS011;18853;45.426;9.206;2023-11-21T02:52:58;63.03;;;46.45;;
32393;SDS011;18853;45.426;9.206;2023-11-21T02:55:25;63.75;;;47.33;;
32393;SDS011;18853;45.426;9.206;2023-11-21T02:57:51;61.55;;;46.53;;
32393;SDS011;18853;45.426;9.206;2023-11-21T03:00:17;60.85;;;45.47;;
32393;SDS011;18853;45.426;9.206;2023-11-21T03:02:43;65.35;;;48.60;;
32393;SDS011;18853;45.426;9.206;2023-11-21T03:05:09;62.83;;;46.50;;
32393;SDS011;18853;45.426;9.206;2023-11-21T03:07:35;61.40;;;45.78;;
32393;SDS011;18853;45.426;9.206;2023-11-21T03:10:02;63.25;;;46.75;;
32393;SDS011;18853;45.426;9.206;2023-11-21T03:12:29;66.68;;;45.55;;
32393;SDS011;18853;45.426;9.206;2023-11-21T03:14:55;64.72;;;44.70;;
32393;SDS011;18853;45.426;9.206;2023-11-21T03:17:21;64.32;;;45.28;;
32393;SDS011;18853;45.426;9.206;2023-11-21T03:19:46;65.75;;;46.05;;
32393;SDS011;18853;45.426;9.206;2023-11-21T03:22:12;58.92;;;44.40;;
32393;SDS011;18853;45.426;9.206;2023-11-21T03:24:38;61.22;;;44.13;;
32393;SDS011;18853;45.426;9.206;2023-11-21T03:27:04;60.20;;;43.85;;
32393;SDS011;18853;45.426;9.206;2023-11-21T03:29:30;58.83;;;42.38;;
32393;SDS011;18853;45.426;9.206;2023-11-21T03:31:55;61.72;;;43.15;;
32393;SDS011;18853;45.426;9.206;2023-11-21T03:34:24;59.78;;;43.58;;
32393;SDS011;18853;45.426;9.206;2023-11-21T03:36:52;63.08;;;42.22;;
32393;SDS011;18853;45.426;9.206;2023-11-21T03:39:19;60.15;;;41.97;;
32393;SDS011;18853;45.426;9.206;2023-11-21T03:41:45;65.65;;;43.63;;
32393;SDS011;18853;45.426;9.206;2023-11-21T03:44:10;57.10;;;40.55;;
32393;SDS011;18853;45.426;9.206;2023-11-21T03:46:36;61.75;;;40.08;;
32393;SDS011;18853;45.426;9.206;2023-11-21T03:49:01;59.20;;;41.30;;
32393;SDS011;18853;45.426;9.206;2023-11-21T03:51:27;59.53;;;40.15;;
32393;SDS011;18853;45.426;9.206;2023-11-21T03:53:53;58.00;;;40.95;;
32393;SDS011;18853;45.426;9.206;2023-11-21T03:56:19;56.67;;;39.75;;
32393;SDS011;18853;45.426;9.206;2023-11-21T03:58:47;62.60;;;41.42;;
32393;SDS011;18853;45.426;9.206;2023-11-21T04:01:23;62.85;;;40.40;;
32393;SDS011;18853;45.426;9.206;2023-11-21T04:03:50;60.63;;;40.30;;
32393;SDS011;18853;45.426;9.206;2023-11-21T04:06:16;62.50;;;42.13;;
32393;SDS011;18853;45.426;9.206;2023-11-21T04:08:43;59.13;;;40.72;;
32393;SDS011;18853;45.426;9.206;2023-11-21T04:11:09;60.15;;;40.53;;
32393;SDS011;18853;45.426;9.206;2023-11-21T04:13:37;59.13;;;40.15;;
32393;SDS011;18853;45.426;9.206;2023-11-21T04:16:03;57.15;;;39.40;;
32393;SDS011;18853;45.426;9.206;2023-11-21T04:18:30;59.67;;;38.70;;
32393;SDS011;18853;45.426;9.206;2023-11-21T04:20:56;60.20;;;39.58;;
32393;SDS011;18853;45.426;9.206;2023-11-21T04:23:21;69.38;;;40.60;;
32393;SDS011;18853;45.426;9.206;2023-11-21T04:25:47;60.35;;;39.85;;
32393;SDS011;18853;45.426;9.206;2023-11-21T04:28:13;61.33;;;39.53;;
32393;SDS011;18853;45.426;9.206;2023-11-21T04:30:38;59.58;;;39.47;;
32393;SDS011;18853;45.426;9.206;2023-11-21T04:33:04;59.85;;;39.25;;
32393;SDS011;18853;45.426;9.206;2023-11-21T04:35:30;64.43;;;38.38;;
32393;SDS011;18853;45.426;9.206;2023-11-21T04:37:55;66.20;;;39.83;;
32393;SDS011;18853;45.426;9.206;2023-11-21T04:40:22;59.80;;;38.53;;
32393;SDS011;18853;45.426;9.206;2023-11-21T04:42:48;56.55;;;37.72;;
32393;SDS011;18853;45.426;9.206;2023-11-21T04:45:13;55.38;;;38.35;;
32393;SDS011;18853;45.426;9.206;2023-11-21T04:47:39;64.35;;;37.75;;
32393;SDS011;18853;45.426;9.206;2023-11-21T04:50:05;64.18;;;39.42;;
32393;SDS011;18853;45.426;9.206;2023-11-21T04:52:31;59.45;;;37.47;;
32393;SDS011;18853;45.426;9.206;2023-11-21T04:54:58;64.97;;;38.03;;
32393;SDS011;18853;45.426;9.206;2023-11-21T04:57:25;58.20;;;39.60;;
32393;SDS011;18853;45.426;9.206;2023-11-21T04:59:53;57.65;;;37.72;;
32393;SDS011;18853;45.426;9.206;2023-11-21T05:02:19;64.95;;;38.38;;
32393;SDS011;18853;45.426;9.206;2023-11-21T05:04:46;63.28;;;38.05;;
32393;SDS011;18853;45.426;9.206;2023-11-21T05:07:11;63.95;;;39.60;;
32393;SDS011;18853;45.426;9.206;2023-11-21T05:09:40;59.75;;;38.38;;
32393;SDS011;18853;45.426;9.206;2023-11-21T05:12:10;58.10;;;37.70;;
32393;SDS011;18853;45.426;9.206;2023-11-21T05:14:39;57.30;;;39.20;;
32393;SDS011;18853;45.426;9.206;2023-11-21T05:17:06;61.10;;;39.55;;
32393;SDS011;18853;45.426;9.206;2023-11-21T05:19:33;55.05;;;37.15;;
32393;SDS011;18853;45.426;9.206;2023-11-21T05:22:00;56.33;;;37.20;;
32393;SDS011;18853;45.426;9.206;2023-11-21T05:24:25;57.88;;;36.20;;
32393;SDS011;18853;45.426;9.206;2023-11-21T05:26:51;56.65;;;37.42;;
32393;SDS011;18853;45.426;9.206;2023-11-21T05:29:17;60.35;;;37.83;;
32393;SDS011;18853;45.426;9.206;2023-11-21T05:31:43;55.58;;;37.10;;
32393;SDS011;18853;45.426;9.206;2023-11-21T05:34:09;64.85;;;38.30;;
32393;SDS011;18853;45.426;9.206;2023-11-21T05:36:34;56.63;;;37.35;;
32393;SDS011;18853;45.426;9.206;2023-11-21T05:39:00;55.88;;;36.40;;
32393;SDS011;18853;45.426;9.206;2023-11-21T05:41:25;58.50;;;36.90;;
32393;SDS011;18853;45.426;9.206;2023-11-21T05:43:51;56.92;;;37.75;;
32393;SDS011;18853;45.426;9.206;2023-11-21T05:46:29;54.60;;;36.42;;
32393;SDS011;18853;45.426;9.206;2023-11-21T05:48:54;59.03;;;36.80;;
32393;SDS011;18853;45.426;9.206;2023-11-21T05:51:20;64.18;;;38.13;;
32393;SDS011;18853;45.426;9.206;2023-11-21T05:53:46;57.22;;;36.88;;
32393;SDS011;18853;45.426;9.206;2023-11-21T05:56:11;55.08;;;36.92;;
32393;SDS011;18853;45.426;9.206;2023-11-21T05:58:38;55.05;;;36.35;;
32393;SDS011;18853;45.426;9.206;2023-11-21T06:01:05;57.60;;;36.28;;
32393;SDS011;18853;45.426;9.206;2023-11-21T06:03:37;56.33;;;36.75;;
32393;SDS011;18853;45.426;9.206;2023-11-21T06:06:03;54.42;;;36.05;;
32393;SDS011;18853;45.426;9.206;2023-11-21T06:08:29;56.15;;;36.30;;
32393;SDS011;18853;45.426;9.206;2023-11-21T06:10:55;56.38;;;35.88;;
32393;SDS011;18853;45.426;9.206;2023-11-21T06:13:21;60.80;;;36.33;;
32393;SDS011;18853;45.426;9.206;2023-11-21T06:15:49;59.53;;;35.25;;
32393;SDS011;18853;45.426;9.206;2023-11-21T06:18:16;55.03;;;34.92;;
32393;SDS011;18853;45.426;9.206;2023-11-21T06:20:44;56.08;;;35.47;;
32393;SDS011;18853;45.426;9.206;2023-11-21T06:23:12;54.35;;;35.20;;
32393;SDS011;18853;45.426;9.206;2023-11-21T06:25:39;52.88;;;35.35;;
32393;SDS011;18853;45.426;9.206;2023-11-21T06:28:05;54.08;;;35.15;;
32393;SDS011;18853;45.426;9.206;2023-11-21T06:30:31;58.40;;;35.70;;
32393;SDS011;18853;45.426;9.206;2023-11-21T06:32:57;54.95;;;34.28;;
32393;SDS011;18853;45.426;9.206;2023-11-21T06:35:22;56.03;;;34.70;;
32393;SDS011;18853;45.426;9.206;2023-11-21T06:37:48;51.45;;;34.42;;
32393;SDS011;18853;45.426;9.206;2023-11-21T06:40:14;63.88;;;37.00;;
32393;SDS011;18853;45.426;9.206;2023-11-21T06:42:40;63.88;;;37.92;;
32393;SDS011;18853;45.426;9.206;2023-11-21T06:45:06;65.03;;;38.10;;
32393;SDS011;18853;45.426;9.206;2023-11-21T06:47:32;61.53;;;38.00;;
32393;SDS011;18853;45.426;9.206;2023-11-21T06:49:59;68.72;;;38.80;;
32393;SDS011;18853;45.426;9.206;2023-11-21T06:52:25;64.20;;;37.88;;
32393;SDS011;18853;45.426;9.206;2023-11-21T06:54:51;66.93;;;37.78;;
32393;SDS011;18853;45.426;9.206;2023-11-21T06:57:16;65.03;;;38.55;;
32393;SDS011;18853;45.426;9.206;2023-11-21T06:59:42;66.82;;;39.35;;
32393;SDS011;18853;45.426;9.206;2023-11-21T07:02:09;65.70;;;38.00;;
32393;SDS011;18853;45.426;9.206;2023-11-21T07:04:35;60.30;;;37.88;;
32393;SDS011;18853;45.426;9.206;2023-11-21T07:07:04;63.08;;;38.70;;
32393;SDS011;18853;45.426;9.206;2023-11-21T07:09:32;66.10;;;38.65;;
32393;SDS011;18853;45.426;9.206;2023-11-21T07:11:57;62.25;;;38.88;;
32393;SDS011;18853;45.426;9.206;2023-11-21T07:14:23;66.65;;;37.83;;
32393;SDS011;18853;45.426;9.206;2023-11-21T07:16:48;64.82;;;38.03;;
32393;SDS011;18853;45.426;9.206;2023-11-21T07:19:14;63.08;;;38.55;;
32393;SDS011;18853;45.426;9.206;2023-11-21T07:21:40;64.43;;;38.28;;
32393;SDS011;18853;45.426;9.206;2023-11-21T07:24:06;66.20;;;39.47;;
32393;SDS011;18853;45.426;9.206;2023-11-21T07:26:33;61.53;;;37.72;;
32393;SDS011;18853;45.426;9.206;2023-11-21T07:28:59;63.28;;;38.28;;
32393;SDS011;18853;45.426;9.206;2023-11-21T07:31:29;63.38;;;38.38;;
32393;SDS011;18853;45.426;9.206;2023-11-21T07:33:56;66.60;;;38.95;;
32393;SDS011;18853;45.426;9.206;2023-11-21T07:36:22;61.58;;;38.90;;
32393;SDS011;18853;45.426;9.206;2023-11-21T07:38:48;66.30;;;39.22;;
32393;SDS011;18853;45.426;9.206;2023-11-21T07:41:15;63.25;;;39.78;;
32393;SDS011;18853;45.426;9.206;2023-11-21T07:43:42;61.58;;;38.83;;
32393;SDS011;18853;45.426;9.206;2023-11-21T07:46:08;58.65;;;36.55;;
32393;SDS011;18853;45.426;9.206;2023-11-21T07:48:34;67.93;;;39.65;;
32393;SDS011;18853;45.426;9.206;2023-11-21T07:51:01;62.70;;;38.92;;
32393;SDS011;18853;45.426;9.206;2023-11-21T07:53:28;59.13;;;38.28;;
32393;SDS011;18853;45.426;9.206;2023-11-21T07:55:55;59.30;;;38.30;;
32393;SDS011;18853;45.426;9.206;2023-11-21T07:58:27;64.20;;;38.30;;
32393;SDS011;18853;45.426;9.206;2023-11-21T08:00:53;61.72;;;39.20;;
32393;SDS011;18853;45.426;9.206;2023-11-21T08:03:19;58.65;;;39.38;;
32393;SDS011;18853;45.426;9.206;2023-11-21T08:05:44;66.35;;;41.03;;
32393;SDS011;18853;45.426;9.206;2023-11-21T08:08:10;61.72;;;39.17;;
32393;SDS011;18853;45.426;9.206;2023-11-21T08:10:36;62.00;;;39.70;;
32393;SDS011;18853;45.426;9.206;2023-11-21T08:13:02;61.17;;;39.30;;
32393;SDS011;18853;45.426;9.206;2023-11-21T08:15:28;59.13;;;39.38;;
32393;SDS011;18853;45.426;9.206;2023-11-21T08:17:54;64.82;;;41.55;;
32393;SDS011;18853;45.426;9.206;2023-11-21T08:20:20;71.97;;;41.45;;
32393;SDS011;18853;45.426;9.206;2023-11-21T08:22:47;60.22;;;40.67;;
32393;SDS011;18853;45.426;9.206;2023-11-21T08:25:13;70.22;;;42.25;;
32393;SDS011;18853;45.426;9.206;2023-11-21T08:27:38;66.45;;;41.50;;
32393;SDS011;18853;45.426;9.206;2023-11-21T08:30:04;61.97;;;41.83;;
32393;SDS011;18853;45.426;9.206;2023-11-21T08:32:31;63.70;;;42.67;;
32393;SDS011;18853;45.426;9.206;2023-11-21T08:34:58;71.63;;;43.47;;
32393;SDS011;18853;45.426;9.206;2023-11-21T08:37:24;69.60;;;44.50;;
32393;SDS011;18853;45.426;9.206;2023-11-21T08:39:52;62.70;;;42.47;;
32393;SDS011;18853;45.426;9.206;2023-11-21T08:42:18;66.10;;;43.80;;
32393;SDS011;18853;45.426;9.206;2023-11-21T08:44:44;62.95;;;42.78;;
32393;SDS011;18853;45.426;9.206;2023-11-21T08:47:10;63.25;;;43.50;;
32393;SDS011;18853;45.426;9.206;2023-11-21T08:49:36;67.00;;;44.63;;
32393;SDS011;18853;45.426;9.206;2023-11-21T08:52:03;65.47;;;43.35;;
32393;SDS011;18853;45.426;9.206;2023-11-21T08:54:30;70.05;;;44.33;;
32393;SDS011;18853;45.426;9.206;2023-11-21T08:56:56;63.60;;;42.88;;
32393;SDS011;18853;45.426;9.206;2023-11-21T08:59:24;66.85;;;43.78;;
32393;SDS011;18853;45.426;9.206;2023-11-21T09:01:50;69.43;;;44.78;;
32393;SDS011;18853;45.426;9.206;2023-11-21T09:04:15;70.88;;;45.78;;
32393;SDS011;18853;45.426;9.206;2023-11-21T09:06:41;71.32;;;44.53;;
32393;SDS011;18853;45.426;9.206;2023-11-21T09:09:07;67.10;;;43.28;;
32393;SDS011;18853;45.426;9.206;2023-11-21T09:11:33;64.78;;;45.15;;
32393;SDS011;18853;45.426;9.206;2023-11-21T09:14:00;70.78;;;45.05;;
32393;SDS011;18853;45.426;9.206;2023-11-21T09:16:25;75.00;;;45.85;;
32393;SDS011;18853;45.426;9.206;2023-11-21T09:18:51;73.10;;;45.67;;
32393;SDS011;18853;45.426;9.206;2023-11-21T09:21:17;73.75;;;46.88;;
32393;SDS011;18853;45.426;9.206;2023-11-21T09:23:46;75.15;;;46.10;;
32393;SDS011;18853;45.426;9.206;2023-11-21T09:26:13;66.78;;;44.45;;
32393;SDS011;18853;45.426;9.206;2023-11-21T09:28:41;67.13;;;44.35;;
32393;SDS011;18853;45.426;9.206;2023-11-21T09:31:11;76.65;;;45.15;;
32393;SDS011;18853;45.426;9.206;2023-11-21T09:33:37;76.50;;;48.67;;
32393;SDS011;18853;45.426;9.206;2023-11-21T09:36:03;75.47;;;46.40;;
32393;SDS011;18853;45.426;9.206;2023-11-21T09:38:30;67.25;;;45.67;;
32393;SDS011;18853;45.426;9.206;2023-11-21T09:40:56;72.75;;;45.28;;
32393;SDS011;18853;45.426;9.206;2023-11-21T09:43:24;70.18;;;45.95;;
32393;SDS011;18853;45.426;9.206;2023-11-21T09:46:02;70.88;;;46.05;;
32393;SDS011;18853;45.426;9.206;2023-11-21T09:48:31;72.90;;;46.75;;
32393;SDS011;18853;45.426;9.206;2023-11-21T09:50:58;74.82;;;46.80;;
32393;SDS011;18853;45.426;9.206;2023-11-21T09:53:25;67.32;;;46.03;;
32393;SDS011;18853;45.426;9.206;2023-11-21T09:55:54;66.82;;;46.30;;
32393;SDS011;18853;45.426;9.206;2023-11-21T09:58:21;71.72;;;47.17;;
32393;SDS011;18853;45.426;9.206;2023-11-21T10:00:49;78.55;;;46.95;;
32393;SDS011;18853;45.426;9.206;2023-11-21T10:03:17;69.82;;;46.35;;
32393;SDS011;18853;45.426;9.206;2023-11-21T10:05:43;75.75;;;50.22;;
32393;SDS011;18853;45.426;9.206;2023-11-21T10:08:11;70.70;;;47.90;;
32393;SDS011;18853;45.426;9.206;2023-11-21T10:10:37;79.78;;;49.40;;
32393;SDS011;18853;45.426;9.206;2023-11-21T10:13:09;74.38;;;47.25;;
32393;SDS011;18853;45.426;9.206;2023-11-21T10:15:37;71.38;;;46.38;;
32393;SDS011;18853;45.426;9.206;2023-11-21T10:18:04;67.88;;;48.15;;
32393;SDS011;18853;45.426;9.206;2023-11-21T10:20:32;77.75;;;48.30;;
32393;SDS011;18853;45.426;9.206;2023-11-21T10:23:03;69.22;;;47.55;;
32393;SDS011;18853;45.426;9.206;2023-11-21T10:25:29;79.68;;;49.30;;
32393;SDS011;18853;45.426;9.206;2023-11-21T10:28:00;70.72;;;47.92;;
32393;SDS011;18853;45.426;9.206;2023-11-21T10:30:32;73.78;;;47.47;;
32393;SDS011;18853;45.426;9.206;2023-11-21T10:32:59;70.22;;;46.70;;
32393;SDS011;18853;45.426;9.206;2023-11-21T10:35:38;69.63;;;47.60;;
32393;SDS011;18853;45.426;9.206;2023-11-21T10:38:06;73.72;;;45.80;;
32393;SDS011;18853;45.426;9.206;2023-11-21T10:40:37;72.03;;;45.85;;
32393;SDS011;18853;45.426;9.206;2023-11-21T10:43:10;69.53;;;46.45;;
32393;SDS011;18853;45.426;9.206;2023-11-21T10:45:40;72.50;;;46.40;;
32393;SDS011;18853;45.426;9.206;2023-11-21T10:48:06;75.00;;;45.80;;
32393;SDS011;18853;45.426;9.206;2023-11-21T10:50:36;71.43;;;45.63;;
32393;SDS011;18853;45.426;9.206;2023-11-21T10:53:05;68.93;;;43.55;;
32393;SDS011;18853;45.426;9.206;2023-11-21T10:55:31;69.13;;;44.45;;
32393;SDS011;18853;45.426;9.206;2023-11-21T10:58:04;64.82;;;44.42;;
32393;SDS011;18853;45.426;9.206;2023-11-21T11:00:31;69.63;;;47.53;;
32393;SDS011;18853;45.426;9.206;2023-11-21T11:02:58;65.43;;;44.30;;
32393;SDS011;18853;45.426;9.206;2023-11-21T11:05:25;69.32;;;47.05;;
32393;SDS011;18853;45.426;9.206;2023-11-21T11:08:04;71.32;;;47.22;;
32393;SDS011;18853;45.426;9.206;2023-11-21T11:10:31;69.68;;;46.92;;
32393;SDS011;18853;45.426;9.206;2023-11-21T11:12:57;68.93;;;46.28;;
32393;SDS011;18853;45.426;9.206;2023-11-21T11:15:26;70.38;;;46.40;;
32393;SDS011;18853;45.426;9.206;2023-11-21T11:17:53;73.05;;;48.17;;
32393;SDS011;18853;45.426;9.206;2023-11-21T11:20:23;69.00;;;46.85;;
32393;SDS011;18853;45.426;9.206;2023-11-21T11:26:04;75.43;;;48.67;;
32393;SDS011;18853;45.426;9.206;2023-11-21T11:36:48;67.88;;;46.45;;
32393;SDS011;18853;45.426;9.206;2023-11-21T11:42:11;67.18;;;49.20;;
32393;SDS011;18853;45.426;9.206;2023-11-21T11:52:36;70.95;;;49.40;;
32393;SDS011;18853;45.426;9.206;2023-11-21T11:55:05;67.38;;;47.63;;
32393;SDS011;18853;45.426;9.206;2023-11-21T11:57:34;73.15;;;48.47;;
32393;SDS011;18853;45.426;9.206;2023-11-21T12:00:07;74.50;;;49.38;;
32393;SDS011;18853;45.426;9.206;2023-11-21T12:02:41;67.30;;;49.22;;
32393;SDS011;18853;45.426;9.206;2023-11-21T12:05:09;65.30;;;49.47;;
32393;SDS011;18853;45.426;9.206;2023-11-21T12:07:47;72.10;;;49.22;;
32393;SDS011;18853;45.426;9.206;2023-11-21T12:10:23;65.88;;;48.50;;
32393;SDS011;18853;45.426;9.206;2023-11-21T12:12:57;68.15;;;48.85;;
32393;SDS011;18853;45.426;9.206;2023-11-21T12:15:24;63.58;;;46.88;;
32393;SDS011;18853;45.426;9.206;2023-11-21T12:17:51;69.53;;;47.75;;
32393;SDS011;18853;45.426;9.206;2023-11-21T12:20:20;65.28;;;47.00;;
32393;SDS011;18853;45.426;9.206;2023-11-21T12:22:47;67.07;;;48.22;;
32393;SDS011;18853;45.426;9.206;2023-11-21T12:25:20;68.25;;;47.20;;
32393;SDS011;18853;45.426;9.206;2023-11-21T12:27:48;61.33;;;46.60;;
32393;SDS011;18853;45.426;9.206;2023-11-21T12:30:15;64.15;;;45.53;;
32393;SDS011;18853;45.426;9.206;2023-11-21T12:32:43;69.32;;;48.40;;
32393;SDS011;18853;45.426;9.206;2023-11-21T12:35:11;62.33;;;45.42;;
32393;SDS011;18853;45.426;9.206;2023-11-21T12:37:38;63.60;;;46.55;;
32393;SDS011;18853;45.426;9.206;2023-11-21T12:40:08;60.72;;;44.97;;
32393;SDS011;18853;45.426;9.206;2023-11-21T12:42:37;62.53;;;48.35;;
32393;SDS011;18853;45.426;9.206;2023-11-21T12:45:10;59.90;;;44.47;;
32393;SDS011;18853;45.426;9.206;2023-11-21T12:47:43;64.45;;;47.28;;
32393;SDS011;18853;45.426;9.206;2023-11-21T12:50:10;64.60;;;46.00;;
32393;SDS011;18853;45.426;9.206;2023-11-21T12:52:40;65.00;;;47.75;;
32393;SDS011;18853;45.426;9.206;2023-11-21T12:55:09;64.05;;;47.35;;
32393;SDS011;18853;45.426;9.206;2023-11-21T12:57:34;63.47;;;47.63;;
32393;SDS011;18853;45.426;9.206;2023-11-21T13:00:03;60.13;;;44.65;;
32393;SDS011;18853;45.426;9.206;2023-11-21T13:02:37;62.22;;;45.42;;
32393;SDS011;18853;45.426;9.206;2023-11-21T13:05:03;66.93;;;47.33;;
32393;SDS011;18853;45.426;9.206;2023-11-21T13:07:40;60.50;;;46.28;;
32393;SDS011;18853;45.426;9.206;2023-11-21T13:10:12;61.40;;;45.13;;
32393;SDS011;18853;45.426;9.206;2023-11-21T13:12:47;63.53;;;46.83;;
32393;SDS011;18853;45.426;9.206;2023-11-21T13:15:16;61.30;;;46.38;;
32393;SDS011;18853;45.426;9.206;2023-11-21T13:17:44;59.65;;;46.45;;
32393;SDS011;18853;45.426;9.206;2023-11-21T13:20:11;65.70;;;46.13;;
32393;SDS011;18853;45.426;9.206;2023-11-21T13:25:21;63.00;;;45.17;;
32393;SDS011;18853;45.426;9.206;2023-11-21T13:27:47;63.83;;;45.03;;
32393;SDS011;18853;45.426;9.206;2023-11-21T13:30:13;57.85;;;44.08;;
32393;SDS011;18853;45.426;9.206;2023-11-21T13:32:48;59.40;;;43.83;;
32393;SDS011;18853;45.426;9.206;2023-11-21T13:35:17;61.28;;;44.00;;
32393;SDS011;18853;45.426;9.206;2023-11-21T13:37:47;59.17;;;45.10;;
32393;SDS011;18853;45.426;9.206;2023-11-21T13:40:15;56.88;;;44.03;;
32393;SDS011;18853;45.426;9.206;2023-11-21T13:42:45;61.75;;;45.50;;
32393;SDS011;18853;45.426;9.206;2023-11-21T13:45:11;58.05;;;45.10;;
32393;SDS011;18853;45.426;9.206;2023-11-21T13:47:37;56.35;;;44.08;;
32393;SDS011;18853;45.426;9.206;2023-11-21T13:50:05;62.33;;;44.83;;
32393;SDS011;18853;45.426;9.206;2023-11-21T13:52:41;59.35;;;44.72;;
32393;SDS011;18853;45.426;9.206;2023-11-21T13:55:09;55.53;;;42.90;;
32393;SDS011;18853;45.426;9.206;2023-11-21T13:57:40;54.80;;;42.53;;
32393;SDS011;18853;45.426;9.206;2023-11-21T14:00:08;58.20;;;41.60;;
32393;SDS011;18853;45.426;9.206;2023-11-21T14:02:51;61.90;;;45.30;;
32393;SDS011;18853;45.426;9.206;2023-11-21T14:05:16;62.28;;;44.53;;
32393;SDS011;18853;45.426;9.206;2023-11-21T14:07:54;57.38;;;42.78;;
32393;SDS011;18853;45.426;9.206;2023-11-21T14:10:21;57.10;;;42.92;;
32393;SDS011;18853;45.426;9.206;2023-11-21T14:12:49;58.90;;;44.58;;
32393;SDS011;18853;45.426;9.206;2023-11-21T14:15:15;57.42;;;42.60;;
32393;SDS011;18853;45.426;9.206;2023-11-21T14:17:44;56.55;;;42.72;;
32393;SDS011;18853;45.426;9.206;2023-11-21T14:20:10;53.30;;;41.35;;
32393;SDS011;18853;45.426;9.206;2023-11-21T14:22:41;57.65;;;44.00;;
32393;SDS011;18853;45.426;9.206;2023-11-21T14:25:07;56.95;;;44.13;;
32393;SDS011;18853;45.426;9.206;2023-11-21T14:27:32;56.78;;;42.10;;
32393;SDS011;18853;45.426;9.206;2023-11-21T14:29:58;56.88;;;42.97;;
32393;SDS011;18853;45.426;9.206;2023-11-21T14:32:24;57.65;;;43.47;;
32393;SDS011;18853;45.426;9.206;2023-11-21T14:34:51;57.03;;;44.25;;
32393;SDS011;18853;45.426;9.206;2023-11-21T14:37:17;54.97;;;41.63;;
32393;SDS011;18853;45.426;9.206;2023-11-21T14:39:43;55.55;;;41.67;;
32393;SDS011;18853;45.426;9.206;2023-11-21T14:42:14;60.25;;;43.17;;
32393;SDS011;18853;45.426;9.206;2023-11-21T14:44:40;56.17;;;42.25;;
32393;SDS011;18853;45.426;9.206;2023-11-21T14:47:07;58.92;;;42.60;;